Time;durP1;ratioP1;P1;durP2;ratioP2;P2;SDS_P1;SDS_P2;PMS_P1;PMS_P2;Temp;Humidity;BMP_temperature;BMP_pressure;BME280_temperature;BME280_humidity;BME280_pressure;Samples;Min_cycle;Max_cycle;Signal;HPM_P1;HPM_P2
2021/10/30 00:00:57;;;;;;;17.42;8.13;;;;;;;18.61;80.04;101347.03;5064602;28;20040;-72
2021/10/30 00:03:24;;;;;;;16.17;7.90;;;;;;;18.64;80.30;101343.47;5058508;28;20418;-72
2021/10/30 00:05:53;;;;;;;14.52;7.30;;;;;;;18.64;80.11;101341.63;5054589;28;20045;-73
2021/10/30 00:08:20;;;;;;;15.98;6.90;;;;;;;18.64;80.04;101335.44;5055935;28;20036;-72
2021/10/30 00:10:48;;;;;;;13.35;7.18;;;;;;;18.65;79.95;101331.81;5058105;28;20066;-72
2021/10/30 00:13:15;;;;;;;15.48;6.97;;;;;;;18.65;79.95;101331.81;5053161;28;20059;-71
2021/10/30 00:15:44;;;;;;;13.55;6.10;;;;;;;18.65;79.56;101330.03;5052501;28;20527;-72
2021/10/30 00:18:11;;;;;;;16.05;5.75;;;;;;;18.65;79.23;101327.38;5052913;28;20041;-72
2021/10/30 00:20:39;;;;;;;11.80;5.63;;;;;;;18.63;78.95;101326.53;5053862;28;20056;-71
2021/10/30 00:23:06;;;;;;;14.40;6.40;;;;;;;18.60;78.69;101326.53;5054038;28;20053;-71
2021/10/30 00:25:34;;;;;;;14.52;6.13;;;;;;;18.56;78.69;101327.47;5061618;28;20053;-72
2021/10/30 00:28:01;;;;;;;12.02;5.60;;;;;;;18.57;78.44;101329.25;5052158;28;20041;-72
2021/10/30 00:30:28;;;;;;;14.00;6.03;;;;;;;18.56;78.41;101330.16;5052622;28;20049;-71
2021/10/30 00:32:58;;;;;;;12.57;5.93;;;;;;;18.59;78.47;101329.22;5066381;28;20048;-72
2021/10/30 00:35:25;;;;;;;14.52;6.57;;;;;;;18.58;78.36;101330.09;5057412;28;20036;-73
2021/10/30 00:37:53;;;;;;;11.35;6.60;;;;;;;18.56;78.45;101324.78;5059823;28;20066;-73
2021/10/30 00:40:20;;;;;;;12.10;5.85;;;;;;;18.55;78.57;101327.44;5060516;28;20037;-72
2021/10/30 00:42:48;;;;;;;14.70;6.68;;;;;;;18.55;78.53;101327.44;5071332;28;20517;-73
2021/10/30 00:45:15;;;;;;;16.50;8.20;;;;;;;18.54;78.52;101318.53;5072945;28;20104;-72
2021/10/30 00:47:43;;;;;;;18.00;8.30;;;;;;;18.56;78.65;101318.56;5058638;28;20048;-73
2021/10/30 00:50:12;;;;;;;14.52;7.18;;;;;;;18.58;78.50;101319.41;5053713;28;20044;-72
2021/10/30 00:52:41;;;;;;;15.00;8.13;;;;;;;18.57;78.49;101325.69;5055589;28;20052;-72
2021/10/30 00:55:10;;;;;;;13.52;6.85;;;;;;;18.55;78.37;101322.09;5052496;28;20043;-72
2021/10/30 00:57:40;;;;;;;14.13;6.32;;;;;;;18.51;78.33;101313.19;5053136;28;20091;-73
2021/10/30 01:00:09;;;;;;;15.02;6.13;;;;;;;18.51;78.12;101317.69;5053802;28;20131;-72
2021/10/30 01:02:36;;;;;;;14.85;5.68;;;;;;;18.50;78.04;101322.13;5060191;28;20040;-73
2021/10/30 01:05:05;;;;;;;15.10;6.35;;;;;;;18.50;77.74;101319.47;5064579;28;20076;-72
2021/10/30 01:07:34;;;;;;;13.48;5.90;;;;;;;18.51;77.57;101315.00;5061651;28;20040;-74
2021/10/30 01:10:02;;;;;;;10.13;5.28;;;;;;;18.54;77.50;101312.28;5052602;28;20047;-73
2021/10/30 01:12:30;;;;;;;13.05;5.97;;;;;;;18.56;77.22;101313.22;5052123;28;20037;-73
2021/10/30 01:14:58;;;;;;;12.25;4.88;;;;;;;18.58;76.99;101316.72;5059847;28;20094;-73
2021/10/30 01:17:26;;;;;;;14.98;5.32;;;;;;;18.60;76.94;101321.19;5068455;28;20036;-73
2021/10/30 01:19:55;;;;;;;11.48;5.70;;;;;;;18.64;76.73;101325.59;5059309;28;20047;-73
2021/10/30 01:22:24;;;;;;;12.43;5.32;;;;;;;18.64;76.44;101314.03;5050311;28;20033;-74
2021/10/30 01:24:52;;;;;;;15.40;6.78;;;;;;;18.57;76.81;101309.63;5053191;28;20053;-73
2021/10/30 01:27:21;;;;;;;17.33;5.80;;;;;;;18.58;77.01;101311.38;5060683;28;20404;-73
2021/10/30 01:29:50;;;;;;;16.65;6.20;;;;;;;18.54;77.23;101318.53;5066608;28;20053;-73
2021/10/30 01:32:18;;;;;;;12.68;6.20;;;;;;;18.51;77.33;101323.03;5062665;28;20053;-73
2021/10/30 01:34:46;;;;;;;17.13;6.13;;;;;;;18.50;77.50;101322.13;5070973;28;20052;-73
2021/10/30 01:37:16;;;;;;;13.60;6.45;;;;;;;18.50;77.71;101326.59;5066448;28;20082;-73
2021/10/30 01:39:43;;;;;;;11.57;6.72;;;;;;;18.37;78.27;101322.25;5070972;28;20041;-73
2021/10/30 01:42:11;;;;;;;13.80;5.28;;;;;;;18.29;78.58;101324.97;5062206;28;20358;-72
2021/10/30 01:44:39;;;;;;;10.68;5.03;;;;;;;18.27;78.61;101324.06;5053355;28;20397;-73
2021/10/30 01:47:06;;;;;;;10.23;4.82;;;;;;;18.25;78.67;101326.75;5055613;28;20090;-73
2021/10/30 01:49:34;;;;;;;10.88;5.30;;;;;;;18.25;78.60;101333.88;5051298;28;20049;-73
2021/10/30 01:52:01;;;;;;;11.18;4.78;;;;;;;18.27;78.37;101334.75;5058927;28;20051;-73
2021/10/30 01:54:30;;;;;;;14.15;5.75;;;;;;;18.27;78.13;101334.75;5071169;28;20044;-74
2021/10/30 01:56:57;;;;;;;15.25;4.65;;;;;;;18.30;77.86;101338.31;5064009;28;20045;-73
2021/10/30 01:59:25;;;;;;;9.23;4.60;;;;;;;18.30;77.59;101330.31;5066039;28;20036;-73
2021/10/30 02:01:52;;;;;;;10.57;5.53;;;;;;;18.31;77.69;101336.53;5064970;28;20037;-73
2021/10/30 02:04:20;;;;;;;16.65;5.10;;;;;;;18.33;77.45;101340.06;5050639;28;20044;-73
2021/10/30 02:06:47;;;;;;;13.00;5.22;;;;;;;18.37;77.29;101339.16;5052186;28;20044;-73
2021/10/30 02:09:15;;;;;;;12.00;5.47;;;;;;;18.40;77.43;101338.25;5054102;28;20518;-72
2021/10/30 02:11:44;;;;;;;10.75;5.60;;;;;;;18.43;77.22;101336.44;5051550;28;20037;-73
2021/10/30 02:14:11;;;;;;;12.07;5.38;;;;;;;18.41;77.31;101332.88;5066719;28;20037;-73
2021/10/30 02:16:39;;;;;;;11.57;5.25;;;;;;;18.38;77.43;101329.38;5066255;28;20143;-73
2021/10/30 02:19:06;;;;;;;11.00;5.50;;;;;;;18.39;77.46;101329.31;5050314;28;20048;-73
2021/10/30 02:21:33;;;;;;;12.10;5.43;;;;;;;18.40;77.46;101322.19;5051927;28;20044;-73
2021/10/30 02:24:00;;;;;;;13.40;5.82;;;;;;;18.42;77.38;101323.97;5064227;28;20051;-73
2021/10/30 02:26:28;;;;;;;12.63;6.10;;;;;;;18.40;77.28;101323.09;5063396;28;20037;-73
2021/10/30 02:28:57;;;;;;;15.18;6.35;;;;;;;18.41;77.56;101335.56;5042851;28;20519;-73
2021/10/30 02:31:24;;;;;;;15.85;5.57;;;;;;;18.37;77.50;101322.25;5031987;28;20752;-73
2021/10/30 02:33:52;;;;;;;13.63;5.55;;;;;;;18.38;77.68;101327.53;5029125;28;20042;-74
2021/10/30 02:36:19;;;;;;;13.10;5.80;;;;;;;18.42;77.65;101333.78;5030945;28;20489;-73
2021/10/30 02:38:46;;;;;;;14.43;5.93;;;;;;;18.36;77.63;101334.72;5030782;28;20041;-73
2021/10/30 02:41:14;;;;;;;15.02;6.00;;;;;;;18.36;77.79;101323.13;5011770;28;20042;-74
2021/10/30 02:43:41;;;;;;;10.32;5.28;;;;;;;18.37;77.94;101332.94;5030032;28;20040;-73
2021/10/30 02:46:10;;;;;;;15.45;6.55;;;;;;;18.37;77.81;101328.47;5022480;28;20038;-73
2021/10/30 02:48:38;;;;;;;14.75;5.97;;;;;;;18.40;77.80;101325.75;5022608;28;20050;-73
2021/10/30 02:51:05;;;;;;;10.80;5.97;;;;;;;18.44;77.75;101326.66;5020038;28;20049;-73
2021/10/30 02:53:33;;;;;;;12.18;5.50;;;;;;;18.46;77.72;101325.72;5028463;28;20493;-73
2021/10/30 02:56:00;;;;;;;14.25;6.40;;;;;;;18.45;77.70;101333.75;5024192;28;20050;-73
2021/10/30 02:58:28;;;;;;;9.38;5.15;;;;;;;18.42;77.73;101339.13;5030424;28;20064;-74
2021/10/30 03:00:55;;;;;;;11.60;6.03;;;;;;;18.39;77.76;101336.47;5029008;28;20494;-74
2021/10/30 03:03:24;;;;;;;14.55;5.85;;;;;;;18.38;77.73;101334.72;5020129;28;20387;-73
2021/10/30 03:05:51;;;;;;;16.20;6.30;;;;;;;18.39;77.44;101334.69;5018361;28;20524;-74
2021/10/30 03:08:18;;;;;;;11.18;5.47;;;;;;;18.38;77.03;101343.59;5027755;28;20036;-74
2021/10/30 03:10:46;;;;;;;15.57;5.25;;;;;;;18.38;76.71;101346.25;5017934;28;20042;-74
2021/10/30 03:13:13;;;;;;;12.45;5.35;;;;;;;18.38;76.29;101343.59;5034082;28;20045;-74
2021/10/30 03:15:41;;;;;;;12.30;5.30;;;;;;;18.42;75.97;101344.47;5035459;28;20042;-73
2021/10/30 03:18:08;;;;;;;10.30;5.03;;;;;;;18.45;75.49;101341.75;5016836;28;20048;-74
2021/10/30 03:20:37;;;;;;;16.45;5.63;;;;;;;18.48;75.05;101342.63;5015271;28;20065;-74
2021/10/30 03:23:05;;;;;;;13.60;5.78;;;;;;;18.52;74.84;101343.50;5010782;28;20048;-74
2021/10/30 03:25:34;;;;;;;16.08;5.50;;;;;;;18.54;74.52;101342.59;5012967;28;20045;-74
2021/10/30 03:28:01;;;;;;;13.05;6.22;;;;;;;18.56;74.39;101347.97;5010211;28;20038;-73
2021/10/30 03:30:29;;;;;;;12.10;6.35;;;;;;;18.54;74.69;101341.69;5011580;28;20536;-74
2021/10/30 03:32:57;;;;;;;15.48;6.35;;;;;;;18.47;74.87;101339.97;5060366;28;20515;-74
2021/10/30 03:35:24;;;;;;;16.42;7.03;;;;;;;18.46;75.23;101354.22;5053328;28;20037;-74
2021/10/30 03:37:53;;;;;;;15.63;6.28;;;;;;;18.44;75.48;101350.72;5056025;28;20044;-74
2021/10/30 03:40:21;;;;;;;14.10;5.65;;;;;;;18.40;75.51;101352.50;5056633;28;20048;-74
2021/10/30 03:42:49;;;;;;;14.05;5.50;;;;;;;18.45;75.41;101360.47;5073507;28;20123;-74
2021/10/30 03:45:17;;;;;;;13.95;5.97;;;;;;;18.42;75.22;101361.41;5073349;28;20035;-74
2021/10/30 03:47:44;;;;;;;11.68;5.65;;;;;;;18.40;75.29;101360.53;5066147;28;20045;-73
2021/10/30 03:50:12;;;;;;;10.25;5.90;;;;;;;18.37;75.32;101360.56;5072807;28;20043;-72
2021/10/30 03:52:39;;;;;;;12.13;6.20;;;;;;;18.37;75.37;101362.34;5063316;28;20377;-74
2021/10/30 03:55:09;;;;;;;12.30;4.85;;;;;;;18.38;75.42;101362.31;5045540;28;20033;-74
2021/10/30 03:57:37;;;;;;;11.77;5.40;;;;;;;18.40;75.04;101363.19;5037065;28;20046;-74
2021/10/30 04:00:06;;;;;;;16.27;5.68;;;;;;;18.44;74.58;101364.06;5033451;28;20041;-73
2021/10/30 04:02:34;;;;;;;11.40;6.00;;;;;;;18.44;74.41;101358.72;5033721;28;20049;-73
2021/10/30 04:05:02;;;;;;;11.13;5.07;;;;;;;18.46;74.13;101356.91;5034074;28;20041;-73
2021/10/30 04:07:29;;;;;;;14.10;5.90;;;;;;;18.46;73.95;101362.25;5033268;28;20037;-74
2021/10/30 04:09:57;;;;;;;12.18;6.75;;;;;;;18.45;74.00;101360.47;5034740;28;20045;-74
2021/10/30 04:12:26;;;;;;;16.75;5.97;;;;;;;18.46;74.20;101354.22;5051806;28;20029;-73
2021/10/30 04:14:53;;;;;;;15.43;6.25;;;;;;;18.44;74.22;101358.72;5053317;28;20045;-73
2021/10/30 04:17:21;;;;;;;10.13;6.00;;;;;;;18.45;74.10;101355.13;5037925;28;20037;-74
2021/10/30 04:19:48;;;;;;;12.70;5.85;;;;;;;18.45;74.17;101349.78;5032781;28;20042;-74
2021/10/30 04:22:16;;;;;;;13.77;5.38;;;;;;;18.41;74.36;101354.28;5042788;28;20132;-72
2021/10/30 04:24:44;;;;;;;10.07;6.05;;;;;;;18.39;74.43;101352.50;5024035;28;20408;-74
2021/10/30 04:27:11;;;;;;;27.75;16.80;;;;;;;18.38;74.32;101356.97;5033806;28;20072;-73
2021/10/30 04:29:40;;;;;;;13.63;6.70;;;;;;;18.36;74.25;101361.44;5033091;28;20046;-74
2021/10/30 04:32:10;;;;;;;14.40;5.88;;;;;;;18.27;74.41;101373.06;5040123;28;20136;-73
2021/10/30 04:34:43;;;;;;;10.57;4.95;;;;;;;18.29;74.33;101370.41;5050001;28;20545;-75
2021/10/30 04:37:15;;;;;;;11.07;6.13;;;;;;;18.31;74.08;101372.16;5037010;28;20041;-71
2021/10/30 04:39:44;;;;;;;12.70;5.63;;;;;;;18.28;74.20;101365.94;5032448;28;20049;-74
2021/10/30 04:42:11;;;;;;;12.15;5.35;;;;;;;18.27;74.34;101369.50;5032636;28;20038;-73
2021/10/30 04:44:40;;;;;;;13.15;5.13;;;;;;;18.31;74.29;101379.31;5033069;28;20046;-74
2021/10/30 04:47:10;;;;;;;9.00;5.15;;;;;;;18.31;74.60;101373.97;5041822;28;20045;-73
2021/10/30 04:49:38;;;;;;;16.95;5.97;;;;;;;18.33;74.42;101381.06;5032664;28;20053;-73
2021/10/30 04:52:07;;;;;;;14.20;6.28;;;;;;;18.30;74.58;101378.41;5033567;28;20038;-74
2021/10/30 04:54:35;;;;;;;12.82;5.50;;;;;;;18.31;74.55;101380.16;5032146;28;20489;-73
2021/10/30 04:57:02;;;;;;;12.50;6.05;;;;;;;18.34;74.41;101384.63;5042174;28;20508;-73
2021/10/30 04:59:29;;;;;;;12.27;6.28;;;;;;;18.36;74.58;101389.97;5033632;28;20044;-73
2021/10/30 05:01:59;;;;;;;11.30;6.55;;;;;;;18.40;74.78;101383.69;5032238;28;20490;-73
2021/10/30 05:04:27;;;;;;;11.63;5.55;;;;;;;18.41;74.93;101386.34;5032623;28;20041;-73
2021/10/30 05:06:54;;;;;;;12.57;5.60;;;;;;;18.41;74.90;101380.13;5032637;28;20378;-73
2021/10/30 05:09:22;;;;;;;12.15;5.60;;;;;;;18.40;74.86;101381.91;5032176;28;20050;-73
2021/10/30 05:11:50;;;;;;;13.35;6.20;;;;;;;18.38;75.11;101386.38;5031889;28;20048;-73
2021/10/30 05:14:17;;;;;;;12.30;6.00;;;;;;;18.38;75.30;101383.69;5046976;28;20040;-72
2021/10/30 05:16:44;;;;;;;10.55;5.50;;;;;;;18.37;75.61;101387.28;5035301;28;20037;-72
2021/10/30 05:19:14;;;;;;;11.95;5.80;;;;;;;18.39;75.69;101392.59;5040584;28;20033;-71
2021/10/30 05:21:41;;;;;;;13.98;7.80;;;;;;;18.36;75.94;101389.97;5049477;28;20040;-73
2021/10/30 05:24:09;;;;;;;14.20;6.38;;;;;;;18.41;75.66;101393.50;5031021;28;20072;-73
2021/10/30 05:26:36;;;;;;;14.07;5.80;;;;;;;18.48;75.27;101400.56;5046056;28;20111;-73
2021/10/30 05:29:03;;;;;;;10.75;5.25;;;;;;;18.46;75.41;101389.00;5042623;28;20377;-73
2021/10/30 05:31:31;;;;;;;14.90;5.35;;;;;;;18.50;75.33;101382.75;5050062;28;20131;-74
2021/10/30 05:33:58;;;;;;;13.63;5.22;;;;;;;18.54;75.43;101393.41;5053127;28;20056;-73
2021/10/30 05:36:30;;;;;;;10.30;4.90;;;;;;;18.55;75.21;101394.28;5070544;28;20041;-73
2021/10/30 05:38:57;;;;;;;10.15;4.53;;;;;;;18.57;74.96;101397.88;5067465;28;20041;-73
2021/10/30 05:41:27;;;;;;;12.38;5.88;;;;;;;18.62;74.71;101390.72;5063417;28;20037;-73
2021/10/30 05:43:54;;;;;;;10.25;4.97;;;;;;;18.67;74.87;101404.94;5056201;28;20040;-73
2021/10/30 05:46:22;;;;;;;11.77;5.65;;;;;;;18.70;74.92;101400.47;5066558;28;20047;-73
2021/10/30 05:48:51;;;;;;;9.95;4.97;;;;;;;18.75;74.75;101397.75;5065904;28;20090;-73
2021/10/30 05:51:19;;;;;;;9.00;4.80;;;;;;;18.85;74.72;101398.53;5065005;28;20060;-73
2021/10/30 05:53:48;;;;;;;11.18;5.25;;;;;;;18.97;74.71;101409.19;5052431;28;20048;-73
2021/10/30 05:56:16;;;;;;;11.80;4.93;;;;;;;19.04;74.87;101409.06;5066175;28;20033;-73
2021/10/30 05:58:43;;;;;;;14.65;4.93;;;;;;;19.12;74.90;101406.34;5070333;28;20045;-73
2021/10/30 06:01:10;;;;;;;13.02;5.63;;;;;;;19.25;74.91;101399.06;5067424;28;20040;-73
2021/10/30 06:03:38;;;;;;;12.10;4.97;;;;;;;19.34;74.97;101405.25;5070674;28;20523;-74
2021/10/30 06:06:05;;;;;;;14.13;4.85;;;;;;;19.45;75.12;101397.97;5070082;28;20052;-72
2021/10/30 06:08:33;;;;;;;9.93;5.30;;;;;;;19.59;74.84;101400.53;5070374;28;20040;-73
2021/10/30 06:11:02;;;;;;;10.77;4.90;;;;;;;19.75;74.00;101406.63;5056524;28;20041;-73
2021/10/30 06:13:30;;;;;;;7.43;4.20;;;;;;;19.81;73.75;101407.44;5050787;28;20037;-73
2021/10/30 06:15:58;;;;;;;13.73;4.28;;;;;;;19.80;72.99;101407.44;5050474;28;20047;-74
2021/10/30 06:18:26;;;;;;;12.30;5.10;;;;;;;19.75;72.19;101404.84;5063261;28;20043;-73
2021/10/30 06:20:53;;;;;;;11.60;4.90;;;;;;;19.73;71.49;101414.66;5058469;28;20073;-73
2021/10/30 06:23:21;;;;;;;10.68;5.38;;;;;;;19.71;71.17;101415.59;5060102;28;20044;-73
2021/10/30 06:25:48;;;;;;;14.20;5.72;;;;;;;19.70;70.84;101414.69;5070073;28;20041;-73
2021/10/30 06:28:17;;;;;;;9.88;4.65;;;;;;;19.73;70.37;101417.34;5054466;28;20041;-73
2021/10/30 06:30:46;;;;;;;14.57;5.95;;;;;;;19.78;70.35;101417.28;5056206;28;20048;-73
2021/10/30 06:33:13;;;;;;;15.65;6.65;;;;;;;19.83;70.65;101421.69;5063517;28;20098;-74
2021/10/30 06:35:41;;;;;;;8.07;4.82;;;;;;;19.83;70.18;101424.38;5064852;28;20041;-74
2021/10/30 06:38:08;;;;;;;8.85;3.90;;;;;;;19.88;69.98;101427.91;5055784;28;20037;-73
2021/10/30 06:40:36;;;;;;;10.07;4.82;;;;;;;19.95;70.58;101417.09;5068546;28;20048;-74
2021/10/30 06:43:03;;;;;;;13.68;5.07;;;;;;;19.99;70.32;101422.41;5067937;28;20045;-74
2021/10/30 06:45:32;;;;;;;13.60;4.82;;;;;;;20.05;70.01;101422.31;5069066;28;20523;-72
2021/10/30 06:48:00;;;;;;;14.30;4.63;;;;;;;20.10;70.32;101425.81;5060335;28;20045;-74
2021/10/30 06:50:30;;;;;;;11.05;4.35;;;;;;;20.20;69.81;101423.91;5070752;28;20044;-73
2021/10/30 06:52:57;;;;;;;13.82;4.13;;;;;;;20.27;69.79;101418.47;5055091;28;20051;-74
2021/10/30 06:55:25;;;;;;;9.48;4.85;;;;;;;20.38;69.22;101422.81;5054234;28;20037;-74
2021/10/30 06:57:52;;;;;;;10.60;4.60;;;;;;;20.45;68.80;101427.19;5059097;28;20384;-73
2021/10/30 07:00:20;;;;;;;8.23;3.92;;;;;;;20.48;68.20;101430.69;5053194;28;20044;-73
2021/10/30 07:02:52;;;;;;;11.32;4.63;;;;;;;20.55;67.89;101421.63;5055381;28;20051;-74
2021/10/30 07:05:20;;;;;;;8.45;3.92;;;;;;;20.63;67.62;101422.41;5068895;28;20040;-75
2021/10/30 07:07:48;;;;;;;9.52;4.53;;;;;;;20.71;67.20;101419.63;5067671;28;20128;-74
2021/10/30 07:10:16;;;;;;;11.05;4.22;;;;;;;20.73;66.68;101422.28;5054262;28;20452;-73
2021/10/30 07:12:44;;;;;;;8.48;3.50;;;;;;;20.73;65.92;101427.66;5057662;28;20056;-73
2021/10/30 07:15:13;;;;;;;9.23;5.13;;;;;;;20.72;65.41;101431.25;5069155;28;20036;-73
2021/10/30 07:17:41;;;;;;;9.35;4.15;;;;;;;20.73;65.16;101433.91;5066562;28;20051;-73
2021/10/30 07:20:12;;;;;;;11.85;4.57;;;;;;;20.72;64.85;101429.47;5053842;28;20041;-72
2021/10/30 07:22:43;;;;;;;12.13;4.88;;;;;;;20.63;64.58;101426.91;5066926;28;20056;-73
2021/10/30 07:25:12;;;;;;;9.50;4.22;;;;;;;20.60;64.96;101424.28;5061719;28;20037;-73
2021/10/30 07:27:40;;;;;;;12.73;4.75;;;;;;;20.59;64.49;101427.88;5059117;28;20521;-73
2021/10/30 07:30:09;;;;;;;11.35;4.80;;;;;;;20.63;64.86;101433.16;5039318;28;20044;-74
2021/10/30 07:32:37;;;;;;;8.50;4.50;;;;;;;20.68;64.86;101433.06;5061003;28;20114;-75
2021/10/30 07:35:05;;;;;;;12.27;4.97;;;;;;;20.75;64.74;101433.88;5064592;28;20047;-74
2021/10/30 07:37:35;;;;;;;11.00;4.70;;;;;;;20.79;64.45;101435.63;5054920;28;20057;-75
2021/10/30 07:40:03;;;;;;;10.65;4.53;;;;;;;20.77;64.45;101440.09;5062439;28;20042;-75
2021/10/30 07:42:31;;;;;;;12.98;5.57;;;;;;;20.76;64.48;101435.66;5063514;28;20048;-75
2021/10/30 07:44:58;;;;;;;9.40;4.47;;;;;;;20.78;64.23;101436.53;5060709;28;20042;-75
2021/10/30 07:47:26;;;;;;;10.10;4.90;;;;;;;20.82;64.00;101444.50;5061760;28;20075;-75
2021/10/30 07:49:53;;;;;;;11.30;4.80;;;;;;;20.85;64.00;101436.41;5062909;28;20488;-75
2021/10/30 07:52:21;;;;;;;13.20;5.25;;;;;;;20.90;63.55;101441.69;5056039;28;20396;-76
2021/10/30 07:54:50;;;;;;;10.93;5.38;;;;;;;20.94;63.51;101444.28;5065655;28;20102;-75
2021/10/30 07:57:18;;;;;;;8.98;4.28;;;;;;;20.96;63.64;101438.91;5053710;28;20041;-75
2021/10/30 07:59:49;;;;;;;10.10;4.63;;;;;;;20.97;63.83;101443.38;5065535;28;20384;-77
2021/10/30 08:02:17;;;;;;;12.73;4.40;;;;;;;20.93;63.77;101447.03;5069688;28;20037;-76
2021/10/30 08:04:45;;;;;;;11.02;4.90;;;;;;;20.91;63.24;101436.31;5061956;28;20037;-75
2021/10/30 08:07:13;;;;;;;10.45;4.10;;;;;;;20.89;62.93;101445.28;5060104;28;20025;-72
2021/10/30 08:09:41;;;;;;;9.80;4.40;;;;;;;20.87;62.57;101439.94;5059653;28;20049;-76
2021/10/30 08:12:12;;;;;;;12.13;4.50;;;;;;;20.86;62.17;101443.56;5046991;28;20041;-76
2021/10/30 08:14:39;;;;;;;10.63;4.28;;;;;;;20.89;61.92;101445.28;5066602;28;20059;-76
2021/10/30 08:17:07;;;;;;;11.98;4.35;;;;;;;20.89;61.98;101445.28;5066699;28;20056;-76
2021/10/30 08:19:35;;;;;;;9.68;4.13;;;;;;;20.88;61.79;101448.88;5070601;28;20497;-73
2021/10/30 08:22:02;;;;;;;7.95;4.28;;;;;;;20.84;61.87;101444.47;5072966;28;20048;-73
2021/10/30 08:24:30;;;;;;;7.95;4.25;;;;;;;20.83;61.54;101440.00;5067905;28;20120;-75
2021/10/30 08:26:58;;;;;;;10.18;4.22;;;;;;;20.85;61.67;101438.19;5073109;28;20377;-76
2021/10/30 08:29:27;;;;;;;9.93;4.55;;;;;;;20.86;61.62;101442.66;5071674;28;20541;-76
2021/10/30 08:31:55;;;;;;;8.35;3.92;;;;;;;20.86;61.82;101437.28;5064545;28;20574;-77
2021/10/30 08:34:22;;;;;;;8.60;4.80;;;;;;;20.90;61.34;101437.22;5053315;28;20504;-76
2021/10/30 08:36:50;;;;;;;10.60;4.88;;;;;;;20.92;61.75;101432.72;5069593;28;20504;-76
2021/10/30 08:39:18;;;;;;;11.05;5.05;;;;;;;20.91;61.28;101430.03;5071757;28;20043;-76
2021/10/30 08:41:45;;;;;;;12.75;5.00;;;;;;;20.88;61.15;101425.59;5068264;28;20078;-75
2021/10/30 08:44:13;;;;;;;10.48;4.32;;;;;;;20.82;61.37;101431.06;5061316;28;20678;-76
2021/10/30 08:46:42;;;;;;;8.43;4.35;;;;;;;20.81;61.33;101426.59;5057294;28;20044;-76
2021/10/30 08:49:11;;;;;;;10.43;5.20;;;;;;;20.84;61.20;101431.06;5056728;28;20044;-76
2021/10/30 08:51:40;;;;;;;8.75;5.15;;;;;;;20.84;61.29;101423.00;5052606;28;20379;-76
2021/10/30 08:54:08;;;;;;;14.13;4.63;;;;;;;20.82;61.16;101428.38;5072338;28;20577;-76
2021/10/30 08:56:37;;;;;;;21.13;8.80;;;;;;;20.81;61.46;101423.03;5071219;28;20036;-76
2021/10/30 08:59:05;;;;;;;12.52;5.45;;;;;;;20.78;61.22;101428.47;5064446;28;20041;-77
2021/10/30 09:01:46;;;;;;;12.77;5.50;;;;;;;20.78;61.39;101432.03;5052170;28;20033;-76
2021/10/30 09:04:16;;;;;;;13.23;6.05;;;;;;;20.79;61.48;101430.25;5055391;28;20052;-75
2021/10/30 09:06:56;;;;;;;11.27;5.05;;;;;;;20.81;61.60;101425.72;5067517;28;20123;-74
2021/10/30 09:09:23;;;;;;;10.38;4.53;;;;;;;20.81;61.38;101423.91;5070744;28;20047;-76
2021/10/30 09:11:55;;;;;;;9.25;5.05;;;;;;;20.82;61.31;101422.13;5056540;28;20048;-76
2021/10/30 09:14:24;;;;;;;12.10;5.68;;;;;;;20.83;61.14;101429.28;5065894;28;20036;-76
2021/10/30 09:17:14;;;;;;;11.23;4.93;;;;;;;20.82;60.86;101422.13;5054334;28;20044;-76
2021/10/30 09:19:45;;;;;;;13.10;5.20;;;;;;;20.77;61.03;101424.00;5061212;28;20041;-76
2021/10/30 09:22:13;;;;;;;12.65;5.40;;;;;;;20.77;61.19;101426.69;5052526;28;20041;-76
2021/10/30 09:24:57;;;;;;;9.70;5.07;;;;;;;20.80;61.08;101418.59;5049829;28;20076;-76
2021/10/30 09:27:46;;;;;;;11.40;5.03;;;;;;;20.78;61.04;101417.72;5031668;28;20138;-76
2021/10/30 09:30:14;;;;;;;12.23;4.85;;;;;;;20.82;61.17;101414.06;5060401;28;20090;-72
2021/10/30 09:32:50;;;;;;;11.88;5.03;;;;;;;20.90;61.03;101420.22;5072406;28;20609;-76
2021/10/30 09:35:32;;;;;;;10.48;4.75;;;;;;;20.91;61.13;101413.94;5067394;28;20047;-76
2021/10/30 09:38:01;;;;;;;11.02;4.95;;;;;;;20.90;61.11;101409.47;5071207;28;20087;-76
2021/10/30 09:40:31;;;;;;;10.95;4.85;;;;;;;20.88;61.33;101408.59;5066955;28;20408;-76
2021/10/30 09:43:15;;;;;;;12.48;5.03;;;;;;;20.82;61.06;101406.03;5070895;28;20045;-76
2021/10/30 09:45:44;;;;;;;8.77;5.13;;;;;;;20.78;61.28;101407.00;5055549;28;20048;-77
2021/10/30 09:48:15;;;;;;;14.32;4.70;;;;;;;20.73;61.29;101407.09;5051286;28;20116;-76
2021/10/30 09:50:44;;;;;;;13.15;5.05;;;;;;;20.72;61.53;101404.41;5064640;28;20560;-77
2021/10/30 09:53:27;;;;;;;8.60;4.65;;;;;;;20.70;61.65;101412.47;5052442;28;20044;-77
2021/10/30 09:55:56;;;;;;;11.13;5.38;;;;;;;20.65;61.65;101419.72;5050440;28;20047;-76
2021/10/30 09:58:42;;;;;;;9.43;5.03;;;;;;;20.63;62.02;101414.38;5068282;28;20536;-76
2021/10/30 10:01:12;;;;;;;12.95;6.00;;;;;;;20.61;62.14;101416.19;5055204;28;20051;-76
2021/10/30 10:03:41;;;;;;;12.20;4.70;;;;;;;20.64;62.39;101408.09;5051551;28;20125;-76
2021/10/30 10:06:11;;;;;;;14.63;5.53;;;;;;;20.65;62.84;101406.31;5050941;28;20045;-76
2021/10/30 10:08:40;;;;;;;11.00;5.13;;;;;;;20.66;63.13;101408.09;5071026;28;20528;-75
2021/10/30 10:11:09;;;;;;;10.32;5.05;;;;;;;20.66;63.21;101411.66;5067020;28;20063;-76
2021/10/30 10:13:38;;;;;;;9.93;5.47;;;;;;;20.64;63.48;101405.41;5067166;28;20484;-76
2021/10/30 10:16:11;;;;;;;9.60;6.03;;;;;;;20.59;63.66;101404.59;5066360;28;20476;-76
2021/10/30 10:18:40;;;;;;;10.15;5.38;;;;;;;20.50;64.08;101409.22;5066912;28;20049;-76
2021/10/30 10:21:12;;;;;;;12.82;6.15;;;;;;;20.48;64.31;101397.63;5069819;28;20045;-75
2021/10/30 10:23:42;;;;;;;12.98;5.53;;;;;;;20.46;64.17;101397.66;5062865;28;20114;-76
2021/10/30 10:26:09;;;;;;;14.30;5.32;;;;;;;20.47;64.21;101390.50;5055814;28;20036;-75
2021/10/30 10:28:37;;;;;;;9.48;5.60;;;;;;;20.52;64.00;101391.31;5064453;28;20041;-75
2021/10/30 10:31:10;;;;;;;10.10;6.00;;;;;;;20.58;64.30;101389.41;5056517;28;20082;-75
2021/10/30 10:33:42;;;;;;;15.03;6.13;;;;;;;20.59;64.22;101388.50;5057266;28;20083;-75
2021/10/30 10:36:23;;;;;;;9.38;5.43;;;;;;;20.60;63.47;101384.91;5050707;28;20056;-75
2021/10/30 10:39:19;;;;;;;10.35;5.38;;;;;;;20.56;63.15;101379.59;5053754;28;20040;-76
2021/10/30 10:41:55;;;;;;;14.40;5.85;;;;;;;20.57;63.17;101373.34;5066852;28;20051;-75
2021/10/30 10:45:02;;;;;;;9.65;5.50;;;;;;;20.60;63.02;101373.31;5065282;28;20082;-74
2021/10/30 10:47:58;;;;;;;9.70;5.18;;;;;;;20.64;62.87;101372.31;5053159;28;20132;-76
2021/10/30 10:50:44;;;;;;;10.80;5.20;;;;;;;20.74;63.19;101368.59;5053913;28;20075;-75
2021/10/30 10:53:23;;;;;;;9.85;5.95;;;;;;;20.82;63.06;101366.66;5062277;28;20094;-75
2021/10/30 10:56:14;;;;;;;8.98;5.10;;;;;;;20.91;63.23;101357.56;5070371;28;20056;-75
2021/10/30 10:59:13;;;;;;;12.50;5.63;;;;;;;20.96;63.34;101359.25;5061130;28;20401;-75
2021/10/30 11:01:43;;;;;;;11.98;5.90;;;;;;;20.98;63.60;101353.88;5045412;28;20041;-76
2021/10/30 11:04:15;;;;;;;9.88;5.72;;;;;;;21.09;63.55;101357.22;5055970;28;20829;-77
2021/10/30 11:06:47;;;;;;;13.10;5.82;;;;;;;21.15;63.77;101357.13;5059817;28;20040;-77
2021/10/30 11:09:16;;;;;;;12.07;5.78;;;;;;;21.13;63.63;101360.75;5055641;28;20102;-71
2021/10/30 11:11:46;;;;;;;13.90;6.07;;;;;;;21.09;64.34;101362.59;5064492;28;20033;-77
2021/10/30 11:14:15;;;;;;;11.25;6.43;;;;;;;21.06;64.79;101357.31;5060307;28;20068;-78
2021/10/30 11:16:46;;;;;;;10.68;5.88;;;;;;;21.06;65.12;101347.44;5053861;28;20048;-78
2021/10/30 11:19:22;;;;;;;9.68;6.30;;;;;;;20.97;65.58;101349.41;5044283;28;20381;-78
2021/10/30 11:22:00;;;;;;;9.85;5.70;;;;;;;20.96;65.98;101351.19;5069683;28;20033;-77
2021/10/30 11:24:30;;;;;;;14.80;6.35;;;;;;;20.92;66.06;101353.97;5059069;28;20773;-77
2021/10/30 11:27:01;;;;;;;9.55;6.65;;;;;;;20.87;66.25;101351.34;5053046;28;20041;-77
2021/10/30 11:29:29;;;;;;;11.77;6.03;;;;;;;20.91;66.46;101354.88;5049797;28;20040;-76